sensor_id;sensor_type;location;lat;lon;timestamp;temperature;humidity
1700;DHT22;847;48.058;7.810;2023-11-21T00:00:13;11.30;99.00
1700;DHT22;847;48.058;7.810;2023-11-21T00:02:40;11.30;99.00
1700;DHT22;847;48.058;7.810;2023-11-21T00:05:09;11.30;99.00
1700;DHT22;847;48.058;7.810;2023-11-21T00:07:36;11.20;99.00
1700;DHT22;847;48.058;7.810;2023-11-21T00:10:03;11.30;99.00
1700;DHT22;847;48.058;7.810;2023-11-21T00:12:31;11.20;99.00
1700;DHT22;847;48.058;7.810;2023-11-21T00:14:58;11.20;99.00
1700;DHT22;847;48.058;7.810;2023-11-21T00:17:25;11.20;99.00
1700;DHT22;847;48.058;7.810;2023-11-21T00:19:52;11.20;99.00
1700;DHT22;847;48.058;7.810;2023-11-21T00:22:20;11.20;99.00
1700;DHT22;847;48.058;7.810;2023-11-21T00:24:47;11.20;99.00
1700;DHT22;847;48.058;7.810;2023-11-21T00:27:13;11.20;99.00
1700;DHT22;847;48.058;7.810;2023-11-21T00:29:40;11.20;99.00
1700;DHT22;847;48.058;7.810;2023-11-21T00:32:07;11.10;99.00
1700;DHT22;847;48.058;7.810;2023-11-21T00:34:34;11.10;99.00
1700;DHT22;847;48.058;7.810;2023-11-21T00:37:01;11.10;99.00
1700;DHT22;847;48.058;7.810;2023-11-21T00:39:29;11.00;99.00
1700;DHT22;847;48.058;7.810;2023-11-21T00:41:58;11.00;99.00
1700;DHT22;847;48.058;7.810;2023-11-21T00:44:25;11.10;99.00
1700;DHT22;847;48.058;7.810;2023-11-21T00:46:51;11.10;99.00
1700;DHT22;847;48.058;7.810;2023-11-21T00:49:18;11.00;99.00
1700;DHT22;847;48.058;7.810;2023-11-21T00:51:46;11.00;99.00
1700;DHT22;847;48.058;7.810;2023-11-21T00:54:13;11.00;99.00
1700;DHT22;847;48.058;7.810;2023-11-21T00:56:43;10.90;99.00
1700;DHT22;847;48.058;7.810;2023-11-21T00:59:12;11.00;99.00
1700;DHT22;847;48.058;7.810;2023-11-21T01:01:39;10.90;99.00
1700;DHT22;847;48.058;7.810;2023-11-21T01:04:06;10.90;99.00
1700;DHT22;847;48.058;7.810;2023-11-21T01:06:33;10.90;99.00
1700;DHT22;847;48.058;7.810;2023-11-21T01:09:00;10.90;99.00
1700;DHT22;847;48.058;7.810;2023-11-21T01:11:26;10.90;99.00
1700;DHT22;847;48.058;7.810;2023-11-21T01:13:54;10.90;99.00
1700;DHT22;847;48.058;7.810;2023-11-21T01:16:21;10.90;99.00
1700;DHT22;847;48.058;7.810;2023-11-21T01:18:49;10.90;99.00
1700;DHT22;847;48.058;7.810;2023-11-21T01:21:16;10.80;99.00
1700;DHT22;847;48.058;7.810;2023-11-21T01:23:43;10.80;99.00
1700;DHT22;847;48.058;7.810;2023-11-21T01:26:10;10.80;99.00
1700;DHT22;847;48.058;7.810;2023-11-21T01:28:36;10.80;99.00
1700;DHT22;847;48.058;7.810;2023-11-21T01:31:05;10.90;99.00
1700;DHT22;847;48.058;7.810;2023-11-21T01:33:32;10.80;99.00
1700;DHT22;847;48.058;7.810;2023-11-21T01:35:59;10.80;99.00
1700;DHT22;847;48.058;7.810;2023-11-21T01:38:26;10.80;99.00
1700;DHT22;847;48.058;7.810;2023-11-21T01:40:53;10.80;99.00
1700;DHT22;847;48.058;7.810;2023-11-21T01:43:20;10.80;99.00
1700;DHT22;847;48.058;7.810;2023-11-21T01:45:47;10.80;99.00
1700;DHT22;847;48.058;7.810;2023-11-21T01:48:15;10.80;99.00
1700;DHT22;847;48.058;7.810;2023-11-21T01:50:43;10.80;99.00
1700;DHT22;847;48.058;7.810;2023-11-21T01:53:11;10.80;99.00
1700;DHT22;847;48.058;7.810;2023-11-21T01:55:39;10.80;99.00
1700;DHT22;847;48.058;7.810;2023-11-21T01:58:06;10.80;99.00
1700;DHT22;847;48.058;7.810;2023-11-21T02:00:33;10.80;99.00
1700;DHT22;847;48.058;7.810;2023-11-21T02:03:00;10.80;99.00
1700;DHT22;847;48.058;7.810;2023-11-21T02:05:29;10.80;99.00
1700;DHT22;847;48.058;7.810;2023-11-21T02:07:56;10.80;99.00
1700;DHT22;847;48.058;7.810;2023-11-21T02:10:22;10.70;99.00
1700;DHT22;847;48.058;7.810;2023-11-21T02:12:49;10.70;99.00
1700;DHT22;847;48.058;7.810;2023-11-21T02:15:17;10.70;99.00
1700;DHT22;847;48.058;7.810;2023-11-21T02:17:45;10.70;99.00
1700;DHT22;847;48.058;7.810;2023-11-21T02:20:12;10.70;99.00
1700;DHT22;847;48.058;7.810;2023-11-21T02:22:42;10.80;99.00
1700;DHT22;847;48.058;7.810;2023-11-21T02:25:10;10.80;99.00
1700;DHT22;847;48.058;7.810;2023-11-21T02:27:37;10.80;99.00
1700;DHT22;847;48.058;7.810;2023-11-21T02:30:05;10.80;99.00
1700;DHT22;847;48.058;7.810;2023-11-21T02:32:33;10.80;99.00
1700;DHT22;847;48.058;7.810;2023-11-21T02:35:00;10.80;99.00
1700;DHT22;847;48.058;7.810;2023-11-21T02:37:33;10.70;99.00
1700;DHT22;847;48.058;7.810;2023-11-21T02:40:00;10.70;99.00
1700;DHT22;847;48.058;7.810;2023-11-21T02:42:30;10.70;99.00
1700;DHT22;847;48.058;7.810;2023-11-21T02:44:57;10.70;99.00
1700;DHT22;847;48.058;7.810;2023-11-21T02:47:24;10.70;99.00
1700;DHT22;847;48.058;7.810;2023-11-21T02:49:51;10.70;99.00
1700;DHT22;847;48.058;7.810;2023-11-21T02:52:18;10.70;99.00
1700;DHT22;847;48.058;7.810;2023-11-21T02:54:45;10.70;99.00
1700;DHT22;847;48.058;7.810;2023-11-21T02:57:12;10.70;99.00
1700;DHT22;847;48.058;7.810;2023-11-21T02:59:40;10.60;99.00
1700;DHT22;847;48.058;7.810;2023-11-21T03:02:07;10.60;99.00
1700;DHT22;847;48.058;7.810;2023-11-21T03:04:34;10.60;99.00
1700;DHT22;847;48.058;7.810;2023-11-21T03:07:01;10.60;99.00
1700;DHT22;847;48.058;7.810;2023-11-21T03:09:28;10.60;99.00
1700;DHT22;847;48.058;7.810;2023-11-21T03:11:54;10.60;99.00
1700;DHT22;847;48.058;7.810;2023-11-21T03:14:21;10.60;99.00
1700;DHT22;847;48.058;7.810;2023-11-21T03:16:49;10.60;99.00
1700;DHT22;847;48.058;7.810;2023-11-21T03:19:16;10.60;99.00
1700;DHT22;847;48.058;7.810;2023-11-21T03:21:43;10.60;99.00
1700;DHT22;847;48.058;7.810;2023-11-21T03:24:09;10.60;99.00
1700;DHT22;847;48.058;7.810;2023-11-21T03:26:36;10.60;99.00
1700;DHT22;847;48.058;7.810;2023-11-21T03:29:03;10.60;99.00
1700;DHT22;847;48.058;7.810;2023-11-21T03:31:31;10.60;99.00
1700;DHT22;847;48.058;7.810;2023-11-21T03:33:59;10.60;99.00
1700;DHT22;847;48.058;7.810;2023-11-21T03:36:27;10.60;99.00
1700;DHT22;847;48.058;7.810;2023-11-21T03:38:53;10.60;99.00
1700;DHT22;847;48.058;7.810;2023-11-21T03:41:21;10.60;99.00
1700;DHT22;847;48.058;7.810;2023-11-21T03:43:47;10.60;99.00
1700;DHT22;847;48.058;7.810;2023-11-21T03:46:14;10.50;99.00
1700;DHT22;847;48.058;7.810;2023-11-21T03:48:41;10.50;99.00
1700;DHT22;847;48.058;7.810;2023-11-21T03:51:09;10.50;99.00
1700;DHT22;847;48.058;7.810;2023-11-21T03:53:35;10.50;99.00
1700;DHT22;847;48.058;7.810;2023-11-21T03:56:03;10.50;99.00
1700;DHT22;847;48.058;7.810;2023-11-21T03:58:30;10.50;99.00
1700;DHT22;847;48.058;7.810;2023-11-21T04:00:56;10.50;99.00
1700;DHT22;847;48.058;7.810;2023-11-21T04:03:23;10.50;99.00
1700;DHT22;847;48.058;7.810;2023-11-21T04:05:50;10.40;99.00
1700;DHT22;847;48.058;7.810;2023-11-21T04:08:18;10.50;99.00
1700;DHT22;847;48.058;7.810;2023-11-21T04:10:45;10.40;99.00
1700;DHT22;847;48.058;7.810;2023-11-21T04:13:11;10.40;99.00
1700;DHT22;847;48.058;7.810;2023-11-21T04:15:38;10.40;99.00
1700;DHT22;847;48.058;7.810;2023-11-21T04:18:05;10.40;99.00
1700;DHT22;847;48.058;7.810;2023-11-21T04:20:31;10.40;99.00
1700;DHT22;847;48.058;7.810;2023-11-21T04:22:58;10.40;99.00
1700;DHT22;847;48.058;7.810;2023-11-21T04:25:26;10.40;99.00
1700;DHT22;847;48.058;7.810;2023-11-21T04:27:53;10.40;99.00
1700;DHT22;847;48.058;7.810;2023-11-21T04:30:20;10.40;99.00
1700;DHT22;847;48.058;7.810;2023-11-21T04:32:47;10.30;99.00
1700;DHT22;847;48.058;7.810;2023-11-21T04:35:14;10.30;99.00
1700;DHT22;847;48.058;7.810;2023-11-21T04:37:40;10.30;99.00
1700;DHT22;847;48.058;7.810;2023-11-21T04:40:08;10.20;99.00
1700;DHT22;847;48.058;7.810;2023-11-21T04:42:37;10.20;99.00
1700;DHT22;847;48.058;7.810;2023-11-21T04:45:04;10.20;99.00
1700;DHT22;847;48.058;7.810;2023-11-21T04:47:34;10.20;99.00
1700;DHT22;847;48.058;7.810;2023-11-21T04:50:02;10.20;99.00
1700;DHT22;847;48.058;7.810;2023-11-21T04:52:29;10.20;99.00
1700;DHT22;847;48.058;7.810;2023-11-21T04:54:55;10.20;99.00
1700;DHT22;847;48.058;7.810;2023-11-21T04:57:24;10.10;99.00
1700;DHT22;847;48.058;7.810;2023-11-21T04:59:52;10.10;99.00
1700;DHT22;847;48.058;7.810;2023-11-21T05:02:18;10.10;99.00
1700;DHT22;847;48.058;7.810;2023-11-21T05:04:46;10.10;99.00
1700;DHT22;847;48.058;7.810;2023-11-21T05:07:13;10.10;99.00
1700;DHT22;847;48.058;7.810;2023-11-21T05:09:41;10.10;99.00
1700;DHT22;847;48.058;7.810;2023-11-21T05:12:09;10.10;99.00
1700;DHT22;847;48.058;7.810;2023-11-21T05:14:37;10.00;99.00
1700;DHT22;847;48.058;7.810;2023-11-21T05:17:05;10.00;99.00
1700;DHT22;847;48.058;7.810;2023-11-21T05:19:33;9.80;99.00
1700;DHT22;847;48.058;7.810;2023-11-21T05:22:00;9.70;99.00
1700;DHT22;847;48.058;7.810;2023-11-21T05:24:27;9.70;99.00
1700;DHT22;847;48.058;7.810;2023-11-21T05:26:54;9.80;99.00
1700;DHT22;847;48.058;7.810;2023-11-21T05:29:22;9.90;99.00
1700;DHT22;847;48.058;7.810;2023-11-21T05:31:49;9.90;99.00
1700;DHT22;847;48.058;7.810;2023-11-21T05:34:17;10.00;99.00
1700;DHT22;847;48.058;7.810;2023-11-21T05:36:43;10.00;99.00
1700;DHT22;847;48.058;7.810;2023-11-21T05:39:11;10.00;99.00
1700;DHT22;847;48.058;7.810;2023-11-21T05:41:38;10.10;99.00
1700;DHT22;847;48.058;7.810;2023-11-21T05:44:05;10.10;99.00
1700;DHT22;847;48.058;7.810;2023-11-21T05:46:31;10.10;99.00
1700;DHT22;847;48.058;7.810;2023-11-21T05:48:58;10.10;99.00
1700;DHT22;847;48.058;7.810;2023-11-21T05:51:26;10.10;99.00
1700;DHT22;847;48.058;7.810;2023-11-21T05:53:53;10.10;99.00
1700;DHT22;847;48.058;7.810;2023-11-21T05:56:20;10.10;99.00
1700;DHT22;847;48.058;7.810;2023-11-21T05:58:47;10.10;99.00
1700;DHT22;847;48.058;7.810;2023-11-21T06:01:14;10.10;99.00
1700;DHT22;847;48.058;7.810;2023-11-21T06:03:40;10.10;99.00
1700;DHT22;847;48.058;7.810;2023-11-21T06:06:08;10.00;99.00
1700;DHT22;847;48.058;7.810;2023-11-21T06:08:36;10.00;99.00
1700;DHT22;847;48.058;7.810;2023-11-21T06:11:03;10.00;99.00
1700;DHT22;847;48.058;7.810;2023-11-21T06:13:30;10.00;99.00
1700;DHT22;847;48.058;7.810;2023-11-21T06:15:56;10.00;99.00
1700;DHT22;847;48.058;7.810;2023-11-21T06:18:23;10.00;99.00
1700;DHT22;847;48.058;7.810;2023-11-21T06:20:50;10.00;99.00
1700;DHT22;847;48.058;7.810;2023-11-21T06:23:18;10.00;99.00
1700;DHT22;847;48.058;7.810;2023-11-21T06:25:46;10.00;99.00
1700;DHT22;847;48.058;7.810;2023-11-21T06:28:14;10.00;99.00
1700;DHT22;847;48.058;7.810;2023-11-21T06:30:43;10.00;99.00
1700;DHT22;847;48.058;7.810;2023-11-21T06:33:10;10.00;99.00
1700;DHT22;847;48.058;7.810;2023-11-21T06:35:37;10.00;99.00
1700;DHT22;847;48.058;7.810;2023-11-21T06:38:05;10.00;99.00
1700;DHT22;847;48.058;7.810;2023-11-21T06:40:32;9.90;99.00
1700;DHT22;847;48.058;7.810;2023-11-21T06:43:01;9.90;99.00
1700;DHT22;847;48.058;7.810;2023-11-21T06:45:28;9.90;99.00
1700;DHT22;847;48.058;7.810;2023-11-21T06:47:55;9.90;99.00
1700;DHT22;847;48.058;7.810;2023-11-21T06:50:21;9.90;99.00
1700;DHT22;847;48.058;7.810;2023-11-21T06:52:48;9.80;99.00
1700;DHT22;847;48.058;7.810;2023-11-21T06:55:15;9.80;99.00
1700;DHT22;847;48.058;7.810;2023-11-21T06:57:42;9.90;99.00
1700;DHT22;847;48.058;7.810;2023-11-21T07:00:12;9.90;99.00
1700;DHT22;847;48.058;7.810;2023-11-21T07:02:39;9.90;99.00
1700;DHT22;847;48.058;7.810;2023-11-21T07:05:06;9.80;99.00
1700;DHT22;847;48.058;7.810;2023-11-21T07:07:34;9.80;99.00
1700;DHT22;847;48.058;7.810;2023-11-21T07:10:02;9.90;99.00
1700;DHT22;847;48.058;7.810;2023-11-21T07:14:56;9.90;99.00
1700;DHT22;847;48.058;7.810;2023-11-21T07:17:24;9.90;99.00
1700;DHT22;847;48.058;7.810;2023-11-21T07:19:51;10.20;99.00
1700;DHT22;847;48.058;7.810;2023-11-21T07:22:18;10.40;99.00
1700;DHT22;847;48.058;7.810;2023-11-21T07:24:48;10.60;99.00
1700;DHT22;847;48.058;7.810;2023-11-21T07:27:16;10.90;99.00
1700;DHT22;847;48.058;7.810;2023-11-21T07:29:42;11.10;99.00
1700;DHT22;847;48.058;7.810;2023-11-21T07:32:09;11.30;99.00
1700;DHT22;847;48.058;7.810;2023-11-21T07:34:37;11.40;99.00
1700;DHT22;847;48.058;7.810;2023-11-21T07:37:04;11.50;99.00
1700;DHT22;847;48.058;7.810;2023-11-21T07:39:31;11.60;99.00
1700;DHT22;847;48.058;7.810;2023-11-21T07:41:57;11.70;99.00
1700;DHT22;847;48.058;7.810;2023-11-21T07:44:24;11.80;99.00
1700;DHT22;847;48.058;7.810;2023-11-21T07:46:51;11.70;99.00
1700;DHT22;847;48.058;7.810;2023-11-21T07:49:22;11.80;99.00
1700;DHT22;847;48.058;7.810;2023-11-21T07:51:50;11.80;99.00
1700;DHT22;847;48.058;7.810;2023-11-21T07:54:17;11.80;99.00
1700;DHT22;847;48.058;7.810;2023-11-21T07:56:44;11.80;99.00
1700;DHT22;847;48.058;7.810;2023-11-21T07:59:11;11.80;99.00
1700;DHT22;847;48.058;7.810;2023-11-21T08:01:38;11.90;99.00
1700;DHT22;847;48.058;7.810;2023-11-21T08:04:05;12.20;99.00
1700;DHT22;847;48.058;7.810;2023-11-21T08:06:33;11.90;99.00
1700;DHT22;847;48.058;7.810;2023-11-21T08:09:02;11.90;99.00
1700;DHT22;847;48.058;7.810;2023-11-21T08:11:28;11.80;99.00
1700;DHT22;847;48.058;7.810;2023-11-21T08:13:57;11.60;99.00
1700;DHT22;847;48.058;7.810;2023-11-21T08:16:24;11.60;99.00
1700;DHT22;847;48.058;7.810;2023-11-21T08:18:51;11.70;99.00
1700;DHT22;847;48.058;7.810;2023-11-21T08:21:18;11.80;99.00
1700;DHT22;847;48.058;7.810;2023-11-21T08:23:45;12.00;99.00
1700;DHT22;847;48.058;7.810;2023-11-21T08:26:16;12.10;99.00
1700;DHT22;847;48.058;7.810;2023-11-21T08:28:42;11.90;99.00
1700;DHT22;847;48.058;7.810;2023-11-21T08:31:09;12.00;99.00
1700;DHT22;847;48.058;7.810;2023-11-21T08:33:36;11.90;99.00
1700;DHT22;847;48.058;7.810;2023-11-21T08:36:07;12.00;99.00
1700;DHT22;847;48.058;7.810;2023-11-21T08:38:34;12.00;99.00
1700;DHT22;847;48.058;7.810;2023-11-21T08:41:03;12.00;99.00
1700;DHT22;847;48.058;7.810;2023-11-21T08:43:35;12.00;99.00
1700;DHT22;847;48.058;7.810;2023-11-21T08:46:11;12.10;99.00
1700;DHT22;847;48.058;7.810;2023-11-21T08:48:41;12.10;99.00
1700;DHT22;847;48.058;7.810;2023-11-21T08:51:10;12.00;99.00
1700;DHT22;847;48.058;7.810;2023-11-21T08:53:38;11.80;99.00
1700;DHT22;847;48.058;7.810;2023-11-21T08:56:05;11.60;99.00
1700;DHT22;847;48.058;7.810;2023-11-21T08:58:34;11.40;99.00
1700;DHT22;847;48.058;7.810;2023-11-21T09:01:02;11.10;99.00
1700;DHT22;847;48.058;7.810;2023-11-21T09:03:29;11.00;99.00
1700;DHT22;847;48.058;7.810;2023-11-21T09:05:57;10.90;99.00
1700;DHT22;847;48.058;7.810;2023-11-21T09:08:24;10.80;99.00
1700;DHT22;847;48.058;7.810;2023-11-21T09:10:50;10.80;99.00
1700;DHT22;847;48.058;7.810;2023-11-21T09:13:17;10.70;99.00
1700;DHT22;847;48.058;7.810;2023-11-21T09:15:45;10.70;99.00
1700;DHT22;847;48.058;7.810;2023-11-21T09:18:13;10.70;99.00
1700;DHT22;847;48.058;7.810;2023-11-21T09:20:40;10.70;99.00
1700;DHT22;847;48.058;7.810;2023-11-21T09:23:06;10.60;99.00
1700;DHT22;847;48.058;7.810;2023-11-21T09:25:33;10.60;99.00
1700;DHT22;847;48.058;7.810;2023-11-21T09:28:00;10.60;99.00
1700;DHT22;847;48.058;7.810;2023-11-21T09:30:27;10.60;99.00
1700;DHT22;847;48.058;7.810;2023-11-21T09:32:55;10.60;99.00
1700;DHT22;847;48.058;7.810;2023-11-21T09:35:21;10.60;99.00
1700;DHT22;847;48.058;7.810;2023-11-21T09:37:49;10.50;99.00
1700;DHT22;847;48.058;7.810;2023-11-21T09:40:21;10.50;99.00
1700;DHT22;847;48.058;7.810;2023-11-21T09:42:52;10.50;99.00
1700;DHT22;847;48.058;7.810;2023-11-21T09:45:25;10.50;99.00
1700;DHT22;847;48.058;7.810;2023-11-21T09:47:54;10.50;99.00
1700;DHT22;847;48.058;7.810;2023-11-21T09:50:22;10.50;99.00
1700;DHT22;847;48.058;7.810;2023-11-21T09:52:57;10.50;99.00
1700;DHT22;847;48.058;7.810;2023-11-21T09:55:27;10.50;99.00
1700;DHT22;847;48.058;7.810;2023-11-21T09:57:56;10.40;99.00
1700;DHT22;847;48.058;7.810;2023-11-21T10:00:23;10.50;99.00
1700;DHT22;847;48.058;7.810;2023-11-21T10:02:51;10.40;99.00
1700;DHT22;847;48.058;7.810;2023-11-21T10:05:20;10.50;99.00
1700;DHT22;847;48.058;7.810;2023-11-21T10:07:49;10.60;99.00
1700;DHT22;847;48.058;7.810;2023-11-21T10:10:19;10.50;99.00
1700;DHT22;847;48.058;7.810;2023-11-21T10:12:49;10.50;99.00
1700;DHT22;847;48.058;7.810;2023-11-21T10:15:16;10.50;99.00
1700;DHT22;847;48.058;7.810;2023-11-21T10:17:44;10.60;99.00
1700;DHT22;847;48.058;7.810;2023-11-21T10:20:13;10.50;99.00
1700;DHT22;847;48.058;7.810;2023-11-21T10:22:42;10.60;99.00
1700;DHT22;847;48.058;7.810;2023-11-21T10:25:09;10.60;99.00
1700;DHT22;847;48.058;7.810;2023-11-21T10:27:37;10.60;99.00
1700;DHT22;847;48.058;7.810;2023-11-21T10:30:05;10.70;99.00
1700;DHT22;847;48.058;7.810;2023-11-21T10:32:33;10.60;99.00
1700;DHT22;847;48.058;7.810;2023-11-21T10:35:00;10.60;99.00
1700;DHT22;847;48.058;7.810;2023-11-21T10:37:31;10.60;99.00
1700;DHT22;847;48.058;7.810;2023-11-21T10:40:00;10.60;99.00
1700;DHT22;847;48.058;7.810;2023-11-21T10:42:26;10.70;99.00
1700;DHT22;847;48.058;7.810;2023-11-21T10:44:54;10.60;99.00
1700;DHT22;847;48.058;7.810;2023-11-21T10:47:21;10.60;99.00
1700;DHT22;847;48.058;7.810;2023-11-21T10:49:49;10.60;99.00
1700;DHT22;847;48.058;7.810;2023-11-21T10:52:18;10.60;99.00
1700;DHT22;847;48.058;7.810;2023-11-21T10:54:46;10.50;99.00
1700;DHT22;847;48.058;7.810;2023-11-21T10:57:17;10.40;99.00
1700;DHT22;847;48.058;7.810;2023-11-21T10:59:46;10.30;99.00
1700;DHT22;847;48.058;7.810;2023-11-21T11:02:21;10.30;99.00
1700;DHT22;847;48.058;7.810;2023-11-21T11:04:52;10.30;99.00
1700;DHT22;847;48.058;7.810;2023-11-21T11:07:21;10.30;99.00
1700;DHT22;847;48.058;7.810;2023-11-21T11:09:51;10.30;99.00
1700;DHT22;847;48.058;7.810;2023-11-21T11:12:20;10.40;99.00
1700;DHT22;847;48.058;7.810;2023-11-21T11:14:48;10.40;99.00
1700;DHT22;847;48.058;7.810;2023-11-21T11:17:15;10.30;99.00
1700;DHT22;847;48.058;7.810;2023-11-21T11:19:41;10.20;99.00
1700;DHT22;847;48.058;7.810;2023-11-21T11:22:19;10.10;99.00
1700;DHT22;847;48.058;7.810;2023-11-21T11:25:03;10.10;99.00
1700;DHT22;847;48.058;7.810;2023-11-21T11:27:47;10.10;99.00
1700;DHT22;847;48.058;7.810;2023-11-21T11:30:23;10.10;99.00
1700;DHT22;847;48.058;7.810;2023-11-21T11:33:00;10.20;99.00
1700;DHT22;847;48.058;7.810;2023-11-21T11:35:34;10.40;99.00
1700;DHT22;847;48.058;7.810;2023-11-21T11:38:03;10.70;99.00
1700;DHT22;847;48.058;7.810;2023-11-21T11:40:40;11.00;99.00
1700;DHT22;847;48.058;7.810;2023-11-21T11:43:08;11.10;99.00
1700;DHT22;847;48.058;7.810;2023-11-21T11:45:35;11.30;99.00
1700;DHT22;847;48.058;7.810;2023-11-21T11:48:06;11.60;99.00
1700;DHT22;847;48.058;7.810;2023-11-21T11:50:33;11.50;99.00
1700;DHT22;847;48.058;7.810;2023-11-21T11:53:12;11.50;99.00
1700;DHT22;847;48.058;7.810;2023-11-21T11:55:39;11.80;99.00
1700;DHT22;847;48.058;7.810;2023-11-21T11:58:08;11.90;99.00
1700;DHT22;847;48.058;7.810;2023-11-21T12:00:35;11.90;99.00
1700;DHT22;847;48.058;7.810;2023-11-21T12:03:06;11.90;99.00
1700;DHT22;847;48.058;7.810;2023-11-21T12:05:34;12.00;99.00
1700;DHT22;847;48.058;7.810;2023-11-21T12:08:06;11.80;99.00
1700;DHT22;847;48.058;7.810;2023-11-21T12:10:34;11.60;99.00
1700;DHT22;847;48.058;7.810;2023-11-21T12:13:02;11.60;99.00
1700;DHT22;847;48.058;7.810;2023-11-21T12:15:32;11.40;99.00
1700;DHT22;847;48.058;7.810;2023-11-21T12:17:59;11.60;99.00
1700;DHT22;847;48.058;7.810;2023-11-21T12:20:26;11.70;99.00
1700;DHT22;847;48.058;7.810;2023-11-21T12:22:54;11.70;99.00
1700;DHT22;847;48.058;7.810;2023-11-21T12:25:23;11.60;99.00
1700;DHT22;847;48.058;7.810;2023-11-21T12:27:51;11.70;99.00
1700;DHT22;847;48.058;7.810;2023-11-21T12:30:20;11.80;99.00
1700;DHT22;847;48.058;7.810;2023-11-21T12:32:51;11.80;99.00
1700;DHT22;847;48.058;7.810;2023-11-21T12:35:18;12.00;99.00
1700;DHT22;847;48.058;7.810;2023-11-21T12:37:47;11.70;99.00
1700;DHT22;847;48.058;7.810;2023-11-21T12:40:15;11.60;99.00
1700;DHT22;847;48.058;7.810;2023-11-21T12:42:44;11.60;99.00
1700;DHT22;847;48.058;7.810;2023-11-21T12:45:19;11.60;99.00
1700;DHT22;847;48.058;7.810;2023-11-21T12:47:49;11.50;99.00
1700;DHT22;847;48.058;7.810;2023-11-21T12:50:19;11.50;99.00
1700;DHT22;847;48.058;7.810;2023-11-21T12:52:49;11.60;99.00
1700;DHT22;847;48.058;7.810;2023-11-21T12:55:17;11.50;99.00
1700;DHT22;847;48.058;7.810;2023-11-21T12:57:48;11.40;99.00
1700;DHT22;847;48.058;7.810;2023-11-21T13:00:16;11.40;99.00
1700;DHT22;847;48.058;7.810;2023-11-21T13:02:54;11.40;99.00
1700;DHT22;847;48.058;7.810;2023-11-21T13:05:27;11.40;99.00
1700;DHT22;847;48.058;7.810;2023-11-21T13:07:55;11.40;99.00
1700;DHT22;847;48.058;7.810;2023-11-21T13:10:24;11.40;99.00
1700;DHT22;847;48.058;7.810;2023-11-21T13:12:53;11.40;99.00
1700;DHT22;847;48.058;7.810;2023-11-21T13:15:20;11.30;99.00
1700;DHT22;847;48.058;7.810;2023-11-21T13:17:47;11.40;99.00
1700;DHT22;847;48.058;7.810;2023-11-21T13:20:16;11.50;99.00
1700;DHT22;847;48.058;7.810;2023-11-21T13:22:47;11.30;99.00
1700;DHT22;847;48.058;7.810;2023-11-21T13:25:15;11.20;99.00
1700;DHT22;847;48.058;7.810;2023-11-21T13:27:43;11.20;99.00
1700;DHT22;847;48.058;7.810;2023-11-21T13:30:12;11.30;99.00
1700;DHT22;847;48.058;7.810;2023-11-21T13:32:40;11.40;99.00
1700;DHT22;847;48.058;7.810;2023-11-21T13:35:08;11.40;99.00
1700;DHT22;847;48.058;7.810;2023-11-21T13:37:42;11.40;99.00
1700;DHT22;847;48.058;7.810;2023-11-21T13:40:11;11.40;99.00
1700;DHT22;847;48.058;7.810;2023-11-21T13:42:40;11.30;99.00
1700;DHT22;847;48.058;7.810;2023-11-21T13:45:08;11.10;99.00
1700;DHT22;847;48.058;7.810;2023-11-21T13:47:35;11.30;99.00
1700;DHT22;847;48.058;7.810;2023-11-21T13:50:04;11.30;99.00
1700;DHT22;847;48.058;7.810;2023-11-21T13:52:33;11.30;99.00
1700;DHT22;847;48.058;7.810;2023-11-21T13:55:03;11.20;99.00
1700;DHT22;847;48.058;7.810;2023-11-21T13:57:37;11.20;99.00
1700;DHT22;847;48.058;7.810;2023-11-21T14:00:05;11.10;99.00
1700;DHT22;847;48.058;7.810;2023-11-21T14:02:36;11.00;99.00
1700;DHT22;847;48.058;7.810;2023-11-21T14:05:08;11.10;99.00
1700;DHT22;847;48.058;7.810;2023-11-21T14:07:36;11.10;99.00
1700;DHT22;847;48.058;7.810;2023-11-21T14:10:05;11.00;99.00
1700;DHT22;847;48.058;7.810;2023-11-21T14:12:33;10.90;99.00
1700;DHT22;847;48.058;7.810;2023-11-21T14:15:03;10.90;99.00
1700;DHT22;847;48.058;7.810;2023-11-21T14:17:34;10.90;99.00
1700;DHT22;847;48.058;7.810;2023-11-21T14:20:04;10.90;99.00
1700;DHT22;847;48.058;7.810;2023-11-21T14:22:31;10.90;99.00
1700;DHT22;847;48.058;7.810;2023-11-21T14:24:58;10.90;99.00
1700;DHT22;847;48.058;7.810;2023-11-21T14:27:31;11.10;99.00
1700;DHT22;847;48.058;7.810;2023-11-21T14:29:58;10.90;99.00
1700;DHT22;847;48.058;7.810;2023-11-21T14:32:25;10.90;99.00
1700;DHT22;847;48.058;7.810;2023-11-21T14:34:52;10.80;99.00
1700;DHT22;847;48.058;7.810;2023-11-21T14:37:19;10.90;99.00
1700;DHT22;847;48.058;7.810;2023-11-21T14:39:45;10.90;99.00
1700;DHT22;847;48.058;7.810;2023-11-21T14:42:15;10.80;99.00
1700;DHT22;847;48.058;7.810;2023-11-21T14:44:48;10.80;99.00
1700;DHT22;847;48.058;7.810;2023-11-21T14:47:14;10.90;99.00
1700;DHT22;847;48.058;7.810;2023-11-21T14:49:42;11.00;99.00
1700;DHT22;847;48.058;7.810;2023-11-21T14:52:18;11.00;99.00
1700;DHT22;847;48.058;7.810;2023-11-21T14:54:58;10.90;99.00
1700;DHT22;847;48.058;7.810;2023-11-21T14:57:45;11.00;99.00
1700;DHT22;847;48.058;7.810;2023-11-21T15:00:17;11.00;99.00
1700;DHT22;847;48.058;7.810;2023-11-21T15:03:10;11.10;99.00
1700;DHT22;847;48.058;7.810;2023-11-21T15:05:46;11.10;99.00
1700;DHT22;847;48.058;7.810;2023-11-21T15:08:14;11.00;99.00
1700;DHT22;847;48.058;7.810;2023-11-21T15:10:47;11.00;99.00
1700;DHT22;847;48.058;7.810;2023-11-21T15:13:15;11.10;99.00
1700;DHT22;847;48.058;7.810;2023-11-21T15:15:43;11.20;99.00
1700;DHT22;847;48.058;7.810;2023-11-21T15:18:09;11.20;99.00
1700;DHT22;847;48.058;7.810;2023-11-21T15:20:37;11.10;99.00
1700;DHT22;847;48.058;7.810;2023-11-21T15:23:04;11.00;99.00
1700;DHT22;847;48.058;7.810;2023-11-21T15:25:31;11.00;99.00
1700;DHT22;847;48.058;7.810;2023-11-21T15:27:59;10.90;99.00
1700;DHT22;847;48.058;7.810;2023-11-21T15:30:28;10.80;99.00
1700;DHT22;847;48.058;7.810;2023-11-21T15:32:58;10.80;99.00
1700;DHT22;847;48.058;7.810;2023-11-21T15:35:25;10.80;99.00
1700;DHT22;847;48.058;7.810;2023-11-21T15:37:53;10.70;99.00
1700;DHT22;847;48.058;7.810;2023-11-21T15:40:23;10.70;99.00
1700;DHT22;847;48.058;7.810;2023-11-21T15:42:49;10.70;99.00
1700;DHT22;847;48.058;7.810;2023-11-21T15:45:16;10.60;99.00
1700;DHT22;847;48.058;7.810;2023-11-21T15:47:46;10.70;99.00
1700;DHT22;847;48.058;7.810;2023-11-21T15:50:14;10.70;99.00
1700;DHT22;847;48.058;7.810;2023-11-21T15:52:41;10.70;99.00
1700;DHT22;847;48.058;7.810;2023-11-21T15:55:10;10.80;99.00
1700;DHT22;847;48.058;7.810;2023-11-21T15:57:36;10.70;99.00
1700;DHT22;847;48.058;7.810;2023-11-21T16:00:04;10.70;99.00
1700;DHT22;847;48.058;7.810;2023-11-21T16:02:37;10.70;99.00
1700;DHT22;847;48.058;7.810;2023-11-21T16:05:05;10.70;99.00
1700;DHT22;847;48.058;7.810;2023-11-21T16:07:34;10.60;99.00
1700;DHT22;847;48.058;7.810;2023-11-21T16:10:02;10.60;99.00
1700;DHT22;847;48.058;7.810;2023-11-21T16:12:29;10.50;99.00
1700;DHT22;847;48.058;7.810;2023-11-21T16:14:56;10.50;99.00
1700;DHT22;847;48.058;7.810;2023-11-21T16:17:23;10.50;99.00
1700;DHT22;847;48.058;7.810;2023-11-21T16:19:50;10.40;99.00
1700;DHT22;847;48.058;7.810;2023-11-21T16:22:17;10.40;99.00
1700;DHT22;847;48.058;7.810;2023-11-21T16:24:45;10.40;99.00
1700;DHT22;847;48.058;7.810;2023-11-21T16:27:12;10.40;99.00